createdAt,value
2018-09-14T00:03:55.772Z,2.62
2018-09-14T00:08:59.051Z,1.87
2018-09-14T00:14:02.333Z,1.22
2018-09-14T00:19:05.898Z,1.32
2018-09-14T00:24:09.170Z,1.25
2018-09-14T00:29:12.450Z,1.10
2018-09-14T00:34:15.731Z,1.85
2018-09-14T00:39:19.033Z,2.67
2018-09-14T00:44:22.434Z,1.70
2018-09-14T00:49:25.714Z,0.95
2018-09-14T00:54:29.035Z,2.83
2018-09-14T00:59:32.311Z,1.07
2018-09-14T01:04:35.593Z,2.27
2018-09-14T01:09:38.875Z,2.17
2018-09-14T01:14:42.158Z,1.85
2018-09-14T01:19:45.443Z,3.65
2018-09-14T01:24:48.734Z,1.45
2018-09-14T01:29:52.014Z,2.15
2018-09-14T01:34:55.307Z,3.12
2018-09-14T01:39:58.581Z,2.25
2018-09-14T01:45:01.883Z,1.22
2018-09-14T01:50:06.474Z,1.60
2018-09-14T01:55:09.775Z,1.72
2018-09-14T02:00:13.053Z,1.10
2018-09-14T02:05:16.327Z,1.15
2018-09-14T02:10:23.163Z,1.50
2018-09-14T02:15:26.470Z,1.95
2018-09-14T02:20:29.786Z,1.40
2018-09-14T02:25:33.129Z,1.82
2018-09-14T02:30:36.445Z,2.72
2018-09-14T02:35:39.774Z,2.52
2018-09-14T02:40:43.095Z,2.50
2018-09-14T02:45:46.406Z,2.02
2018-09-14T02:50:49.715Z,1.12
2018-09-14T02:55:53.018Z,2.35
2018-09-14T03:00:56.314Z,2.75
2018-09-14T03:05:59.619Z,1.65
2018-09-14T03:11:02.946Z,1.50
2018-09-14T03:16:06.247Z,1.00
2018-09-14T03:21:09.555Z,2.12
2018-09-14T03:26:13.028Z,1.55
2018-09-14T03:31:16.358Z,1.47
2018-09-14T03:36:19.672Z,1.60
2018-09-14T03:41:23.154Z,2.20
2018-09-14T03:46:26.447Z,1.02
2018-09-14T03:51:29.750Z,2.52
2018-09-14T03:56:33.046Z,1.90
2018-09-14T04:01:36.362Z,2.90
2018-09-14T04:06:39.677Z,4.30
2018-09-14T04:11:43.035Z,2.60
2018-09-14T04:16:46.343Z,4.00
2018-09-14T04:21:49.647Z,7.85
2018-09-14T04:26:52.957Z,5.97
2018-09-14T04:31:56.254Z,3.87
2018-09-14T04:36:59.546Z,2.30
2018-09-14T04:42:02.842Z,8.03
2018-09-14T04:47:06.373Z,4.22
2018-09-14T04:52:09.709Z,2.55
2018-09-14T04:57:13.057Z,4.03
2018-09-14T05:02:16.370Z,3.52
2018-09-14T05:07:19.641Z,6.22
2018-09-14T05:12:22.940Z,4.08
2018-09-14T05:17:26.252Z,4.53
2018-09-14T05:22:29.526Z,5.37
2018-09-14T05:27:32.815Z,2.77
2018-09-14T05:32:36.100Z,3.62
2018-09-14T05:37:39.394Z,4.17
2018-09-14T05:42:42.669Z,4.40
2018-09-14T05:47:45.972Z,4.05
2018-09-14T05:52:49.247Z,3.62
2018-09-14T05:57:52.576Z,4.60
2018-09-14T06:02:55.926Z,4.83
2018-09-14T06:07:59.170Z,4.00
2018-09-14T06:13:02.486Z,7.92
2018-09-14T06:18:05.766Z,5.47
2018-09-14T06:23:09.174Z,4.92
2018-09-14T06:28:12.382Z,4.25
2018-09-14T06:33:15.677Z,7.28
2018-09-14T06:38:19.025Z,7.45
2018-09-14T06:43:22.348Z,8.13
2018-09-14T06:48:26.419Z,3.77
2018-09-14T06:53:29.752Z,5.25
2018-09-14T06:58:33.063Z,10.63
2018-09-14T07:03:36.378Z,11.00
2018-09-14T07:08:39.690Z,16.32
2018-09-14T07:13:43.027Z,11.48
2018-09-14T07:18:46.618Z,10.23
2018-09-14T07:23:49.921Z,8.85
2018-09-14T07:28:53.277Z,14.20
2018-09-14T07:33:56.584Z,14.87
2018-09-14T07:38:59.894Z,13.75
2018-09-14T07:44:03.195Z,17.27
2018-09-14T07:49:06.618Z,11.10
2018-09-14T07:54:09.931Z,12.53
2018-09-14T07:59:13.254Z,10.00
2018-09-14T08:04:16.558Z,12.10
2018-09-14T08:09:19.899Z,17.15
2018-09-14T08:14:23.214Z,13.85
2018-09-14T08:19:26.523Z,12.43
2018-09-14T08:24:29.826Z,23.22
2018-09-14T08:29:33.137Z,10.53
2018-09-14T08:34:36.450Z,15.38
2018-09-14T08:39:39.749Z,9.83
2018-09-14T08:44:43.059Z,12.50
2018-09-14T08:49:46.366Z,17.23
2018-09-14T08:54:49.683Z,10.85
2018-09-14T08:59:52.997Z,12.73
2018-09-14T09:04:56.312Z,13.10
2018-09-14T09:09:59.632Z,18.40
2018-09-14T09:15:03.044Z,14.10
2018-09-14T09:20:06.595Z,13.40
2018-09-14T09:25:09.907Z,13.57
2018-09-14T09:30:13.215Z,13.00
2018-09-14T09:35:16.514Z,13.98
2018-09-14T09:40:19.822Z,13.10
2018-09-14T09:45:23.126Z,12.15
2018-09-14T09:50:26.451Z,9.45
2018-09-14T09:55:29.758Z,8.97
2018-09-14T10:00:38.494Z,11.07
2018-09-14T10:05:47.110Z,6.90
2018-09-14T10:10:50.540Z,7.08
2018-09-14T10:15:53.903Z,8.13
2018-09-14T10:20:57.233Z,9.90
2018-09-14T10:26:00.514Z,7.28
2018-09-14T10:31:03.858Z,5.70
2018-09-14T10:36:07.158Z,9.15
2018-09-14T10:41:10.438Z,6.17
2018-09-14T10:46:13.719Z,6.72
2018-09-14T10:51:17.023Z,6.20
2018-09-14T10:56:20.395Z,5.37
2018-09-14T11:01:23.701Z,5.03
2018-09-14T11:06:27.180Z,3.47
2018-09-14T11:11:30.458Z,13.85
2018-09-14T11:16:33.810Z,4.28
2018-09-14T11:21:37.129Z,6.17
2018-09-14T11:26:40.550Z,5.40
2018-09-14T11:31:43.875Z,7.40
2018-09-14T11:36:47.165Z,14.65
2018-09-14T11:41:50.459Z,3.45
2018-09-14T11:46:53.803Z,5.03
2018-09-14T11:51:57.094Z,6.70
2018-09-14T11:57:00.379Z,3.90
2018-09-14T12:02:03.712Z,4.33
2018-09-14T12:07:06.998Z,7.42
2018-09-14T12:12:10.747Z,4.55
2018-09-14T12:17:14.120Z,3.27
2018-09-14T12:22:17.458Z,8.73
2018-09-14T12:27:20.809Z,3.85
2018-09-14T12:32:24.146Z,4.72
2018-09-14T12:37:27.477Z,5.12
2018-09-14T12:42:30.776Z,4.35
2018-09-14T12:47:34.053Z,3.52
2018-09-14T12:52:37.547Z,3.80
2018-09-14T12:57:40.914Z,4.45
2018-09-14T13:02:44.283Z,6.75
2018-09-14T13:07:48.301Z,3.55
2018-09-14T13:12:51.869Z,5.35
2018-09-14T13:17:55.316Z,3.20
2018-09-14T13:22:59.002Z,5.12
2018-09-14T13:28:02.440Z,4.12
2018-09-14T13:33:05.754Z,4.55
2018-09-14T13:38:09.068Z,3.02
2018-09-14T13:43:12.391Z,5.45
2018-09-14T13:48:15.891Z,5.33
2018-09-14T13:53:19.286Z,10.63
2018-09-14T13:58:22.647Z,7.92
2018-09-14T14:03:25.930Z,3.55
2018-09-14T14:08:29.218Z,5.35
2018-09-14T14:13:32.506Z,3.62
2018-09-14T14:18:36.815Z,3.12
2018-09-14T14:23:40.108Z,4.60
2018-09-14T14:28:43.582Z,7.35
2018-09-14T14:33:46.896Z,7.42
2018-09-14T14:38:50.186Z,10.65
2018-09-14T14:43:54.430Z,6.12
2018-09-14T14:48:57.731Z,7.03
2018-09-14T14:54:01.044Z,3.62
2018-09-14T14:59:04.599Z,3.05
2018-09-14T15:04:08.011Z,4.12
2018-09-14T15:09:11.615Z,3.27
2018-09-14T15:14:14.996Z,3.42
2018-09-14T15:19:18.430Z,5.55
2018-09-14T15:24:21.703Z,5.00
2018-09-14T15:29:24.986Z,5.85
2018-09-14T15:34:28.424Z,3.95
2018-09-14T15:39:31.714Z,4.00
2018-09-14T15:44:35.014Z,13.50
2018-09-14T15:49:38.314Z,6.10
2018-09-14T15:54:41.621Z,4.53
2018-09-14T15:59:44.975Z,6.75
2018-09-14T16:04:48.281Z,6.72
2018-09-14T16:09:51.597Z,3.72
2018-09-14T16:14:54.878Z,3.85
2018-09-14T16:19:58.187Z,4.95
2018-09-14T16:25:01.484Z,3.40
2018-09-14T16:30:05.337Z,3.87
2018-09-14T16:35:08.859Z,9.60
2018-09-14T16:40:12.142Z,6.12
2018-09-14T16:45:15.445Z,3.57
2018-09-14T16:50:18.746Z,9.73
2018-09-14T16:55:22.034Z,3.27
2018-09-14T17:00:25.331Z,3.50
2018-09-14T17:05:28.780Z,7.33
2018-09-14T17:10:32.098Z,5.05
2018-09-14T17:15:35.382Z,4.77
2018-09-14T17:20:38.691Z,5.03
2018-09-14T17:25:41.966Z,7.05
2018-09-14T17:30:45.274Z,5.65
2018-09-14T17:35:48.579Z,4.12
2018-09-14T17:40:51.870Z,15.60
2018-09-14T17:45:55.168Z,10.28
2018-09-14T17:50:58.451Z,7.33
2018-09-14T17:56:01.763Z,13.15
2018-09-14T18:01:05.067Z,8.68
2018-09-14T18:06:08.346Z,7.37
2018-09-14T18:11:11.726Z,7.33
2018-09-14T18:16:15.060Z,8.03
2018-09-14T18:21:18.419Z,5.83
2018-09-14T18:26:21.807Z,5.83
2018-09-14T18:31:25.119Z,5.08
2018-09-14T18:36:28.483Z,5.37
2018-09-14T18:41:31.818Z,8.63
2018-09-14T18:46:35.240Z,10.13
2018-09-14T18:51:38.530Z,9.10
2018-09-14T18:56:41.810Z,5.62
2018-09-14T19:01:45.123Z,9.53
2018-09-14T19:06:48.423Z,5.42
2018-09-14T19:11:51.793Z,4.05
2018-09-14T19:16:55.398Z,6.33
2018-09-14T19:21:58.690Z,6.70
2018-09-14T19:27:01.981Z,6.10
2018-09-14T19:32:05.262Z,7.47
2018-09-14T19:37:08.558Z,5.08
2018-09-14T19:42:11.833Z,6.25
2018-09-14T19:47:15.115Z,7.28
2018-09-14T19:52:18.638Z,10.65
2018-09-14T19:57:21.939Z,9.53
2018-09-14T20:02:25.271Z,7.95
2018-09-14T20:07:28.550Z,10.45
2018-09-14T20:12:31.837Z,8.80
2018-09-14T20:17:35.595Z,9.30
2018-09-14T20:22:38.979Z,9.15
2018-09-14T20:27:42.270Z,11.75
2018-09-14T20:32:45.578Z,8.93
2018-09-14T20:37:48.866Z,7.83
2018-09-14T20:42:52.159Z,7.78
2018-09-14T20:47:55.506Z,7.42
2018-09-14T20:52:58.819Z,10.08
2018-09-14T20:58:02.159Z,10.35
2018-09-14T21:03:05.518Z,9.55
2018-09-14T21:08:08.815Z,8.85
2018-09-14T21:13:12.134Z,9.65
2018-09-14T21:18:15.447Z,8.23
2018-09-14T21:23:18.757Z,11.63
2018-09-14T21:28:22.067Z,8.20
2018-09-14T21:33:25.405Z,6.37
2018-09-14T21:38:28.789Z,5.65
2018-09-14T21:43:32.098Z,4.65
2018-09-14T21:48:35.606Z,5.65
2018-09-14T21:53:38.958Z,5.03
2018-09-14T21:58:42.394Z,4.12
2018-09-14T22:03:45.703Z,8.23
2018-09-14T22:08:49.010Z,4.70
2018-09-14T22:13:52.737Z,5.95
2018-09-14T22:18:56.048Z,5.37
2018-09-14T22:23:59.349Z,6.58
2018-09-14T22:29:02.676Z,4.97
2018-09-14T22:34:05.986Z,4.80
2018-09-14T22:39:10.934Z,4.70
2018-09-14T22:44:14.287Z,7.10
2018-09-14T22:49:17.590Z,4.53
2018-09-14T22:54:21.214Z,5.28
2018-09-14T22:59:24.855Z,4.12
2018-09-14T23:04:28.179Z,5.30
2018-09-14T23:09:31.486Z,4.83
2018-09-14T23:14:34.785Z,4.58
2018-09-14T23:19:38.081Z,3.85
2018-09-14T23:24:41.389Z,5.30
2018-09-14T23:29:44.694Z,3.72
2018-09-14T23:34:48.050Z,3.85
2018-09-14T23:39:51.346Z,5.55
2018-09-14T23:44:54.695Z,4.55
2018-09-14T23:49:57.994Z,6.53
2018-09-14T23:55:01.290Z,3.87
